Denver, CO

10:04 PM MST on February 07, 2016 (GMT -0700)
Buckley Air Force Base | | Change Station
CLOSE
Current Station
Airport
Location: Aurora,
Elevation: 5663 ft
Nearby Weather Stations

Elev 5663 ft 39.71 °N, 104.76 °W | Updated 6 minutes ago

Clear
Clear
19 °F
Feels Like 7 °F
N
10
Wind Variable Wind from SSE

Today
High -- | Low -- °F
--% Chance of Precip.
Yesterday
High -- | Low -- °F
Precip. -- in
Pressure 30.49 in
Visibility 10.0 miles
Clouds Scattered Clouds 10000 ft
Scattered Clouds 20000 ft
Windchill 7 °F
Dew Point 14 °F
Humidity 83%
Rainfall 0.00 in
Snow Depth Not available.
7:01 AM 5:26 PM
Waning Crescent, 0% visible
METAR KBKF 080458Z 15009KT 10SM SCT100 SCT200 M07/M10 A3038 RMK AO2A SLP323 T10731097
Pressure 30.49 in
Visibility 10.0 miles
Clouds Scattered Clouds 10000 ft
Scattered Clouds 20000 ft
Windchill 7 °F
Dew Point 14 °F
Humidity 83%
Rainfall 0.00 in
Snow Depth Not available.
7:01 AM 5:26 PM
Waning Crescent, 0% visible
METAR KBKF 080458Z 15009KT 10SM SCT100 SCT200 M07/M10 A3038 RMK AO2A SLP323 T10731097

10-Day Weather Forecast

Almanac

Astronomy

Feb. 07, 2016 Rise Set
Actual Time
Civil Twilight
Nautical Twilight
Astronomical Twilight
Moon
Length of Visible Light
Length of Day
Tomorrow will be .
, % of the Moon is Illuminated

Today's Extremes

State Highs State Lows

Community

WunderPhotos

Upload Photos

1,891,382 photos uploaded!

WunderBlog® & News

Nearby

Air Quality

  Air Quality AQ Index Pollutant
Not available.

Snow Depth

Station Depth Elevation

Earthquake Activity

City Distance Mag. Time & Date
Minimum magnitude displayed is 2.5.

Coastal Water Temperatures

Place Temperature

Stations

Nearby Weather Stations

Station Location Temp. Windchill Dew Point Humidity Wind Precip. Elev Updated Type
                   

Watches & Warnings

There are currently no watches in effect.